createdAt,value
2017-06-22T00:00:34.109Z,10.44
2017-06-22T00:01:33.795Z,10.49
2017-06-22T00:02:34.091Z,10.51
2017-06-22T00:03:33.776Z,10.34
2017-06-22T00:04:34.072Z,10.51
2017-06-22T00:05:33.760Z,10.39
2017-06-22T00:06:33.754Z,10.46
2017-06-22T00:07:34.042Z,10.43
2017-06-22T00:08:33.738Z,10.35
2017-06-22T00:09:33.726Z,10.29
2017-06-22T00:10:33.717Z,10.38
2017-06-22T00:11:33.712Z,10.32
2017-06-22T00:12:33.694Z,10.36
2017-06-22T00:13:33.688Z,10.34
2017-06-22T00:14:33.983Z,10.35
2017-06-22T00:15:33.974Z,10.34
2017-06-22T00:16:33.662Z,10.31
2017-06-22T00:17:33.954Z,10.32
2017-06-22T00:18:33.948Z,10.32
2017-06-22T00:19:33.936Z,10.29
2017-06-22T00:20:33.623Z,10.25
2017-06-22T00:21:33.919Z,10.22
2017-06-22T00:22:33.609Z,10.26
2017-06-22T00:23:33.600Z,10.28
2017-06-22T00:24:33.591Z,10.25
2017-06-22T00:25:33.885Z,10.32
2017-06-22T00:26:33.877Z,10.22
2017-06-22T00:27:33.870Z,10.31
2017-06-22T00:28:33.856Z,10.29
2017-06-22T00:29:33.544Z,10.34
2017-06-22T00:30:33.838Z,10.18
2017-06-22T00:31:33.527Z,10.26
2017-06-22T00:32:33.816Z,10.31
2017-06-22T00:33:33.813Z,10.28
2017-06-22T00:34:33.806Z,10.26
2017-06-22T00:35:33.792Z,10.25
2017-06-22T00:36:33.787Z,10.24
2017-06-22T00:37:33.780Z,10.22
2017-06-22T00:38:33.768Z,10.22
2017-06-22T00:39:33.761Z,10.26
2017-06-22T00:40:33.748Z,10.22
2017-06-22T00:41:33.737Z,10.22
2017-06-22T00:42:33.736Z,10.2
2017-06-22T00:43:33.721Z,10.18
2017-06-22T00:44:33.710Z,10.26
2017-06-22T00:45:33.704Z,10.25
2017-06-22T00:46:33.395Z,10.26
2017-06-22T00:47:33.687Z,10.18
2017-06-22T00:48:33.682Z,10.16
2017-06-22T00:49:33.665Z,10.22
2017-06-22T00:50:33.660Z,10.22
2017-06-22T00:51:33.653Z,10.11
2017-06-22T00:52:33.639Z,10.17
2017-06-22T00:53:33.635Z,10.09
2017-06-22T00:54:33.646Z,10.17
2017-06-22T00:55:33.615Z,10.09
2017-06-22T00:56:33.607Z,10.07
2017-06-22T00:57:33.592Z,10.1
2017-06-22T00:58:33.588Z,10.06
2017-06-22T00:59:33.275Z,10.16
2017-06-22T01:00:33.565Z,10.1
2017-06-22T01:01:33.560Z,10.06
2017-06-22T01:02:33.550Z,9.98
2017-06-22T01:03:33.534Z,10.02
2017-06-22T01:04:33.532Z,10.04
2017-06-22T01:05:33.522Z,10.01
2017-06-22T01:06:33.511Z,10.02
2017-06-22T01:07:33.500Z,10.06
2017-06-22T01:08:33.193Z,10.06
2017-06-22T01:09:33.484Z,9.98
2017-06-22T01:10:33.476Z,10.04
2017-06-22T01:11:33.164Z,9.98
2017-06-22T01:12:33.156Z,9.98
2017-06-22T01:13:33.448Z,10.01
2017-06-22T01:14:33.444Z,10.02
2017-06-22T01:15:33.433Z,10.01
2017-06-22T01:16:33.425Z,10.01
2017-06-22T01:17:33.410Z,9.83
2017-06-22T01:18:33.098Z,9.86
2017-06-22T01:19:33.385Z,9.99
2017-06-22T01:20:33.378Z,9.96
2017-06-22T01:21:33.373Z,10.02
2017-06-22T01:22:33.363Z,9.99
2017-06-22T01:23:33.352Z,10.02
2017-06-22T01:24:33.342Z,10.01
2017-06-22T01:25:33.336Z,9.99
2017-06-22T01:26:33.328Z,9.96
2017-06-22T01:27:33.309Z,9.96
2017-06-22T01:28:33.305Z,10.01
2017-06-22T01:29:33.297Z,10.04
2017-06-22T01:30:33.286Z,10.02
2017-06-22T01:31:32.975Z,10.01
2017-06-22T01:32:33.265Z,9.98
2017-06-22T01:33:33.255Z,10.06
2017-06-22T01:34:32.951Z,9.96
2017-06-22T01:35:33.239Z,9.95
2017-06-22T01:36:33.231Z,9.86
2017-06-22T01:37:33.220Z,9.86
2017-06-22T01:38:33.217Z,10.07
2017-06-22T01:39:33.206Z,10.04
2017-06-22T01:40:33.192Z,10.01
2017-06-22T01:41:32.890Z,9.99
2017-06-22T01:42:32.874Z,10.01
2017-06-22T01:43:32.861Z,10.01
2017-06-22T01:44:32.850Z,10.01
2017-06-22T01:45:33.148Z,10.04
2017-06-22T01:46:33.140Z,10.02
2017-06-22T01:47:33.129Z,10.02
2017-06-22T01:48:33.114Z,9.93
2017-06-22T01:49:33.108Z,9.88
2017-06-22T01:50:33.100Z,9.92
2017-06-22T01:51:33.091Z,9.91
2017-06-22T01:52:33.083Z,9.91
2017-06-22T01:53:33.072Z,9.91
2017-06-22T01:54:33.062Z,9.92
2017-06-22T01:55:33.048Z,9.91
2017-06-22T01:56:32.767Z,9.96
2017-06-22T01:57:33.037Z,9.89
2017-06-22T01:58:33.025Z,9.95
2017-06-22T01:59:33.036Z,10.01
2017-06-22T02:00:33.008Z,9.96
2017-06-22T02:01:32.998Z,9.99
2017-06-22T02:02:32.988Z,10.02
2017-06-22T02:03:32.982Z,10.02
2017-06-22T02:04:32.969Z,10.02
2017-06-22T02:05:32.963Z,10.07
2017-06-22T02:06:32.949Z,10.04
2017-06-22T02:07:32.943Z,9.93
2017-06-22T02:08:32.631Z,10.06
2017-06-22T02:09:32.929Z,9.98
2017-06-22T02:10:32.915Z,10.02
2017-06-22T02:11:32.907Z,9.93
2017-06-22T02:12:32.899Z,9.75
2017-06-22T02:13:32.882Z,9.75
2017-06-22T02:14:32.874Z,9.78
2017-06-22T02:15:32.864Z,9.88
2017-06-22T02:16:32.860Z,9.91
2017-06-22T02:17:32.850Z,9.99
2017-06-22T02:18:32.836Z,9.99
2017-06-22T02:19:32.223Z,10.01
2017-06-22T02:20:32.215Z,9.99
2017-06-22T02:21:32.812Z,9.89
2017-06-22T02:22:32.805Z,9.99
2017-06-22T02:23:32.791Z,9.98
2017-06-22T02:24:32.781Z,9.96
2017-06-22T02:25:32.772Z,9.95
2017-06-22T02:26:32.766Z,9.96
2017-06-22T02:27:32.755Z,9.96
2017-06-22T02:28:32.743Z,9.96
2017-06-22T02:29:32.740Z,9.99
2017-06-22T02:30:32.732Z,10.04
2017-06-22T02:31:32.716Z,9.99
2017-06-22T02:32:32.704Z,9.96
2017-06-22T02:33:32.697Z,9.98
2017-06-22T02:34:32.384Z,9.93
2017-06-22T02:35:32.674Z,9.88
2017-06-22T02:36:32.673Z,9.95
2017-06-22T02:37:32.357Z,9.91
2017-06-22T02:38:32.348Z,9.95
2017-06-22T02:39:32.337Z,9.96
2017-06-22T02:40:32.628Z,9.92
2017-06-22T02:41:32.320Z,9.89
2017-06-22T02:42:32.309Z,9.91
2017-06-22T02:43:32.300Z,9.88
2017-06-22T02:44:32.590Z,9.91
2017-06-22T02:45:32.281Z,9.88
2017-06-22T02:46:32.273Z,9.86
2017-06-22T02:47:32.566Z,9.86
2017-06-22T02:48:32.255Z,9.96
2017-06-22T02:49:32.242Z,9.92
2017-06-22T02:50:32.538Z,9.88
2017-06-22T02:51:32.527Z,9.85
2017-06-22T02:52:32.521Z,9.95
2017-06-22T02:53:32.508Z,9.88
2017-06-22T02:54:32.497Z,9.86
2017-06-22T02:55:32.517Z,9.88
2017-06-22T02:56:32.185Z,9.91
2017-06-22T02:57:32.474Z,9.86
2017-06-22T02:58:32.459Z,9.93
2017-06-22T02:59:31.849Z,9.92
2017-06-22T03:00:32.446Z,9.91
2017-06-22T03:01:32.436Z,9.96
2017-06-22T03:02:32.424Z,9.93
2017-06-22T03:03:32.415Z,9.96
2017-06-22T03:04:32.408Z,9.89
2017-06-22T03:05:32.393Z,9.98
2017-06-22T03:06:32.392Z,9.96
2017-06-22T03:07:32.376Z,9.89
2017-06-22T03:08:32.367Z,9.92
2017-06-22T03:09:32.359Z,9.96
2017-06-22T03:10:32.351Z,9.86
2017-06-22T03:11:32.345Z,9.93
2017-06-22T03:12:32.334Z,9.86
2017-06-22T03:13:32.318Z,9.95
2017-06-22T03:14:32.311Z,9.86
2017-06-22T03:15:31.998Z,9.91
2017-06-22T03:16:32.294Z,9.93
2017-06-22T03:17:32.281Z,9.96
2017-06-22T03:18:32.276Z,9.89
2017-06-22T03:19:32.264Z,9.96
2017-06-22T03:20:32.254Z,9.86
2017-06-22T03:21:32.247Z,9.89
2017-06-22T03:22:32.240Z,9.99
2017-06-22T03:23:32.226Z,9.86
2017-06-22T03:24:32.215Z,9.88
2017-06-22T03:25:32.207Z,9.93
2017-06-22T03:26:32.198Z,9.96
2017-06-22T03:27:32.187Z,9.98
2017-06-22T03:28:32.181Z,9.85
2017-06-22T03:29:32.170Z,9.98
2017-06-22T03:30:32.159Z,9.92
2017-06-22T03:31:32.153Z,10.04
2017-06-22T03:32:31.839Z,9.98
2017-06-22T03:33:32.129Z,9.93
2017-06-22T03:34:32.124Z,10.01
2017-06-22T03:35:32.113Z,10.06
2017-06-22T03:36:32.105Z,9.99
2017-06-22T03:37:32.096Z,9.93
2017-06-22T03:38:32.088Z,10.01
2017-06-22T03:39:32.074Z,10.01
2017-06-22T03:40:32.071Z,10.01
2017-06-22T03:41:32.053Z,10.02
2017-06-22T03:42:32.049Z,9.99
2017-06-22T03:43:32.040Z,9.89
2017-06-22T03:44:32.032Z,9.91
2017-06-22T03:45:31.726Z,9.95
2017-06-22T03:46:32.012Z,9.96
2017-06-22T03:47:31.701Z,10.01
2017-06-22T03:48:31.990Z,9.93
2017-06-22T03:49:31.980Z,9.95
2017-06-22T03:50:31.977Z,9.95
2017-06-22T03:51:31.961Z,9.88
2017-06-22T03:52:31.968Z,9.96
2017-06-22T03:53:31.945Z,9.98
2017-06-22T03:54:31.942Z,9.96
2017-06-22T03:55:31.626Z,10.04
2017-06-22T03:56:31.929Z,9.88
2017-06-22T03:57:31.915Z,9.99
2017-06-22T03:58:31.901Z,10.04
2017-06-22T03:59:31.590Z,10.1
2017-06-22T04:00:31.883Z,10.01
2017-06-22T04:01:32.092Z,10.02
2017-06-22T04:02:31.867Z,9.93
2017-06-22T04:03:31.855Z,9.96
2017-06-22T04:04:31.548Z,9.93
2017-06-22T04:05:31.535Z,9.88
2017-06-22T04:06:31.827Z,9.92
2017-06-22T04:07:31.819Z,9.89
2017-06-22T04:08:31.812Z,9.92
2017-06-22T04:09:31.801Z,9.86
2017-06-22T04:10:31.789Z,9.89
2017-06-22T04:11:31.782Z,9.92
2017-06-22T04:12:31.774Z,9.88
2017-06-22T04:13:31.764Z,9.95
2017-06-22T04:14:31.756Z,9.93
2017-06-22T04:15:31.757Z,9.99
2017-06-22T04:16:31.740Z,9.95
2017-06-22T04:17:31.729Z,9.99
2017-06-22T04:18:31.714Z,10.04
2017-06-22T04:19:31.704Z,10.01
2017-06-22T04:20:31.699Z,10.01
2017-06-22T04:21:31.684Z,10.06
2017-06-22T04:22:31.680Z,10.04
2017-06-22T04:23:31.669Z,10.14
2017-06-22T04:24:31.659Z,10.09
2017-06-22T04:25:31.649Z,10.22
2017-06-22T04:26:31.640Z,10.2
2017-06-22T04:27:31.631Z,10.29
2017-06-22T04:28:31.627Z,10.25
2017-06-22T04:29:31.616Z,10.24
2017-06-22T04:30:31.608Z,10.11
2017-06-22T04:31:31.598Z,10.1
2017-06-22T04:32:31.593Z,10.18
2017-06-22T04:33:31.782Z,10.22
2017-06-22T04:34:31.571Z,10.16
2017-06-22T04:35:31.260Z,10.13
2017-06-22T04:36:31.553Z,10.2
2017-06-22T04:37:31.544Z,10.18
2017-06-22T04:38:31.453Z,10.2
2017-06-22T04:39:31.726Z,10.28
2017-06-22T04:40:31.514Z,10.18
2017-06-22T04:41:31.505Z,10.14
2017-06-22T04:42:31.500Z,10.11
2017-06-22T04:43:31.184Z,10.26
2017-06-22T04:44:31.683Z,10.31
2017-06-22T04:45:31.468Z,10.28
2017-06-22T04:46:31.458Z,10.29
2017-06-22T04:47:31.459Z,10.32
2017-06-22T04:48:31.437Z,10.34
2017-06-22T04:49:31.430Z,10.29
2017-06-22T04:50:31.423Z,10.25
2017-06-22T04:51:31.414Z,10.34
2017-06-22T04:52:31.401Z,10.2
2017-06-22T04:53:31.395Z,10.22
2017-06-22T04:54:31.387Z,10.25
2017-06-22T04:55:31.386Z,10.38
2017-06-22T04:56:31.370Z,10.35
2017-06-22T04:57:31.362Z,10.39
2017-06-22T04:58:31.349Z,10.44
2017-06-22T04:59:31.344Z,10.42
2017-06-22T05:00:31.339Z,10.38
2017-06-22T05:01:31.331Z,10.34
2017-06-22T05:02:31.313Z,10.26
2017-06-22T05:03:31.307Z,10.2
2017-06-22T05:04:31.303Z,10.16
2017-06-22T05:05:31.290Z,10.29
2017-06-22T05:06:31.280Z,10.42
2017-06-22T05:07:31.275Z,10.51
2017-06-22T05:08:31.262Z,10.46
2017-06-22T05:09:31.253Z,10.38
2017-06-22T05:10:31.244Z,10.46
2017-06-22T05:11:31.454Z,10.43
2017-06-22T05:12:31.232Z,10.36
2017-06-22T05:13:31.219Z,10.44
2017-06-22T05:14:31.209Z,10.55
2017-06-22T05:15:31.203Z,10.51
2017-06-22T05:16:31.404Z,10.47
2017-06-22T05:17:44.575Z,10.46
2017-06-22T05:18:31.174Z,10.55
2017-06-22T05:19:31.170Z,10.47
2017-06-22T05:20:31.159Z,10.49
2017-06-22T05:21:31.146Z,10.52
2017-06-22T05:22:30.840Z,10.51
2017-06-22T05:23:31.132Z,10.55
2017-06-22T05:24:31.119Z,10.49
2017-06-22T05:25:31.120Z,10.32
2017-06-22T05:26:31.106Z,10.36
2017-06-22T05:27:31.099Z,10.35
2017-06-22T05:28:31.094Z,10.46
2017-06-22T05:29:31.078Z,10.44
2017-06-22T05:30:31.068Z,10.42
2017-06-22T05:31:31.063Z,10.52
2017-06-22T05:32:31.055Z,10.69
2017-06-22T05:33:31.050Z,10.78
2017-06-22T05:34:31.036Z,10.83
2017-06-22T05:35:31.025Z,10.7
2017-06-22T05:36:31.015Z,10.65
2017-06-22T05:37:31.004Z,10.66
2017-06-22T05:38:30.697Z,10.57
2017-06-22T05:39:30.989Z,10.62
2017-06-22T05:40:30.981Z,10.49
2017-06-22T05:41:30.975Z,10.34
2017-06-22T05:42:30.962Z,10.44
2017-06-22T05:43:30.961Z,10.55
2017-06-22T05:44:30.949Z,10.49
2017-06-22T05:45:30.939Z,10.7
2017-06-22T05:46:30.929Z,10.49
2017-06-22T05:47:30.918Z,10.66
2017-06-22T05:48:31.112Z,10.62
2017-06-22T05:49:30.901Z,10.68
2017-06-22T05:50:30.891Z,10.66
2017-06-22T05:51:30.882Z,10.76
2017-06-22T05:52:30.875Z,10.65
2017-06-22T05:53:30.869Z,10.58
2017-06-22T05:54:31.057Z,10.49
2017-06-22T05:55:30.849Z,10.52
2017-06-22T05:56:30.846Z,10.73
2017-06-22T05:57:30.837Z,10.81
2017-06-22T05:58:30.823Z,10.6
2017-06-22T05:59:30.816Z,10.72
2017-06-22T06:00:30.805Z,10.73
2017-06-22T06:01:30.808Z,10.49
2017-06-22T06:02:30.789Z,10.52
2017-06-22T06:03:30.780Z,10.34
2017-06-22T06:04:30.769Z,10.42
2017-06-22T06:05:30.765Z,10.43
2017-06-22T06:06:30.754Z,10.31
2017-06-22T06:07:30.740Z,10.36
2017-06-22T06:08:30.736Z,10.51
2017-06-22T06:09:30.728Z,10.52
2017-06-22T06:10:30.716Z,10.43
2017-06-22T06:11:30.709Z,10.46
2017-06-22T06:12:30.696Z,10.43
2017-06-22T06:13:30.387Z,10.43
2017-06-22T06:14:30.682Z,10.44
2017-06-22T06:15:30.670Z,10.47
2017-06-22T06:16:30.664Z,10.49
2017-06-22T06:17:30.659Z,10.6
2017-06-22T06:18:30.642Z,10.86
2017-06-22T06:19:30.638Z,10.83
2017-06-22T06:20:30.626Z,10.81
2017-06-22T06:21:30.619Z,11.02
2017-06-22T06:22:30.605Z,10.83
2017-06-22T06:23:30.603Z,10.69
2017-06-22T06:24:30.290Z,10.8
2017-06-22T06:25:30.582Z,10.68
2017-06-22T06:26:30.785Z,10.58
2017-06-22T06:27:30.571Z,10.52
2017-06-22T06:28:30.557Z,10.7
2017-06-22T06:29:30.242Z,10.76
2017-06-22T06:30:30.544Z,10.7
2017-06-22T06:31:30.736Z,10.66
2017-06-22T06:32:30.729Z,10.63
2017-06-22T06:33:30.515Z,10.68
2017-06-22T06:34:30.499Z,10.69
2017-06-22T06:35:30.493Z,10.75
2017-06-22T06:36:30.483Z,11.11
2017-06-22T06:37:30.472Z,10.94
2017-06-22T06:38:30.468Z,11.12
2017-06-22T06:39:30.457Z,10.9
2017-06-22T06:40:30.446Z,10.87
2017-06-22T06:41:30.437Z,11.11
2017-06-22T06:42:30.434Z,11.62
2017-06-22T06:43:30.426Z,11.6
2017-06-22T06:44:30.414Z,11.35
2017-06-22T06:45:30.401Z,11.16
2017-06-22T06:46:30.398Z,10.99
2017-06-22T06:47:30.085Z,11.38
2017-06-22T06:48:30.379Z,11.24
2017-06-22T06:49:30.071Z,11.17
2017-06-22T06:50:30.358Z,10.9
2017-06-22T06:51:30.354Z,10.94
2017-06-22T06:52:30.344Z,11.16
2017-06-22T06:53:30.335Z,11.16
2017-06-22T06:54:30.322Z,11.63
2017-06-22T06:55:30.317Z,12.18
2017-06-22T06:56:30.317Z,12.11
2017-06-22T06:57:30.300Z,11.94
2017-06-22T06:58:30.292Z,11.57
2017-06-22T06:59:30.285Z,12.16
2017-06-22T07:00:30.272Z,11.85
2017-06-22T07:01:29.968Z,11.77
2017-06-22T07:02:30.261Z,11.63
2017-06-22T07:03:30.277Z,11.59
2017-06-22T07:04:30.242Z,11.94
2017-06-22T07:05:30.241Z,12.11
2017-06-22T07:06:30.228Z,12.46
2017-06-22T07:07:30.220Z,11.81
2017-06-22T07:08:30.416Z,11.53
2017-06-22T07:09:30.202Z,11.26
2017-06-22T07:10:30.195Z,11.39
2017-06-22T07:11:30.188Z,11.45
2017-06-22T07:12:30.178Z,11.56
2017-06-22T07:13:30.172Z,11.74
2017-06-22T07:14:30.164Z,11.57
2017-06-22T07:15:30.158Z,11.36
2017-06-22T07:16:30.149Z,11.57
2017-06-22T07:17:30.140Z,11.6
2017-06-22T07:18:29.829Z,11.63
2017-06-22T07:19:30.130Z,11.31
2017-06-22T07:20:30.122Z,11.45
2017-06-22T07:21:29.805Z,12
2017-06-22T07:22:30.098Z,12.04
2017-06-22T07:23:30.092Z,12.18
2017-06-22T07:24:29.782Z,12.59
2017-06-22T07:25:29.770Z,12.52
2017-06-22T07:26:30.068Z,12.21
2017-06-22T07:27:30.060Z,11.88
2017-06-22T07:28:29.750Z,12.05
2017-06-22T07:29:30.043Z,12.44
2017-06-22T07:30:30.034Z,12.76
2017-06-22T07:31:30.028Z,12.88
2017-06-22T07:32:29.721Z,12.4
2017-06-22T07:33:30.013Z,12.03
2017-06-22T07:34:30.000Z,11.85
2017-06-22T07:35:29.996Z,11.88
2017-06-22T07:36:29.990Z,11.87
2017-06-22T07:37:29.685Z,11.72
2017-06-22T07:38:29.973Z,11.79
2017-06-22T07:39:29.970Z,12.19
2017-06-22T07:40:29.657Z,12.37
2017-06-22T07:41:29.955Z,13.04
2017-06-22T07:42:29.639Z,13.17
2017-06-22T07:43:29.937Z,13.22
2017-06-22T07:44:29.629Z,13.29
2017-06-22T07:45:29.619Z,13.72
2017-06-22T07:46:29.613Z,14.27
2017-06-22T07:47:29.602Z,14.87
2017-06-22T07:48:29.596Z,14.19
2017-06-22T07:49:29.588Z,14.26
2017-06-22T07:50:29.580Z,14.41
2017-06-22T07:51:29.578Z,14.31
2017-06-22T07:52:29.571Z,14.39
2017-06-22T07:53:29.568Z,14.23
2017-06-22T07:54:29.556Z,14.94
2017-06-22T07:55:29.546Z,14.36
2017-06-22T07:56:29.550Z,14.08
2017-06-22T07:57:29.538Z,14.42
2017-06-22T07:58:29.831Z,14.08
2017-06-22T07:59:29.826Z,14.36
2017-06-22T08:00:29.825Z,14.48
2017-06-22T08:01:29.514Z,14.61
2017-06-22T08:02:29.806Z,14.83
2017-06-22T08:03:29.499Z,14.57
2017-06-22T08:04:29.794Z,15.19
2017-06-22T08:05:29.788Z,15.09
2017-06-22T08:06:29.480Z,14.27
2017-06-22T08:07:29.774Z,13.86
2017-06-22T08:08:29.466Z,13.69
2017-06-22T08:09:29.764Z,13.46
2017-06-22T08:10:29.760Z,13.79
2017-06-22T08:11:29.150Z,14.13
2017-06-22T08:12:29.447Z,14.48
2017-06-22T08:13:29.438Z,14.54
2017-06-22T08:14:29.733Z,13.91
2017-06-22T08:15:29.724Z,13.63
2017-06-22T08:16:29.723Z,13.79
2017-06-22T08:17:29.718Z,14.13
2017-06-22T08:18:29.406Z,14.59
2017-06-22T08:19:29.701Z,15.11
2017-06-22T08:20:29.697Z,15.04
2017-06-22T08:21:29.702Z,14.67
2017-06-22T08:22:29.682Z,15.13
2017-06-22T08:23:29.684Z,15.28
2017-06-22T08:24:29.673Z,15.46
2017-06-22T08:25:29.665Z,14.94
2017-06-22T08:26:29.361Z,14.93
2017-06-22T08:27:29.656Z,14.9
2017-06-22T08:28:29.347Z,14.3
2017-06-22T08:29:29.644Z,14.61
2017-06-22T08:30:29.637Z,14.8
2017-06-22T08:31:29.335Z,14.67
2017-06-22T08:32:29.625Z,14.82
2017-06-22T08:33:29.616Z,14.39
2017-06-22T08:34:29.613Z,14.61
2017-06-22T08:35:29.608Z,15.58
2017-06-22T08:36:29.606Z,15.73
2017-06-22T08:37:29.598Z,15.99
2017-06-22T08:38:29.592Z,15.76
2017-06-22T08:39:29.591Z,15.81
2017-06-22T08:40:29.582Z,16.27
2017-06-22T08:41:29.277Z,16.08
2017-06-22T08:42:29.572Z,16.55
2017-06-22T08:43:29.263Z,16.85
2017-06-22T08:44:29.566Z,16.26
2017-06-22T08:45:29.559Z,16.75
2017-06-22T08:46:29.560Z,17.15
2017-06-22T08:47:29.550Z,17.3
2017-06-22T08:48:29.551Z,17.51
2017-06-22T08:49:29.538Z,17.15
2017-06-22T08:50:29.532Z,16.33
2017-06-22T08:51:29.528Z,15.77
2017-06-22T08:52:29.522Z,15.92
2017-06-22T08:53:29.527Z,15.73
2017-06-22T08:54:29.518Z,16.3
2017-06-22T08:55:29.509Z,16.98
2017-06-22T08:56:29.218Z,17.2
2017-06-22T08:57:29.507Z,17.4
2017-06-22T08:58:29.195Z,17.47
2017-06-22T08:59:29.193Z,17.54
2017-06-22T09:00:29.192Z,17.43
2017-06-22T09:01:29.490Z,17.77
2017-06-22T09:02:29.182Z,17.98
2017-06-22T09:03:29.483Z,18.21
2017-06-22T09:04:29.475Z,18.1
2017-06-22T09:05:29.472Z,18.07
2017-06-22T09:06:29.169Z,17.42
2017-06-22T09:07:29.462Z,16.69
2017-06-22T09:08:29.162Z,15.66
2017-06-22T09:09:28.854Z,15.77
2017-06-22T09:10:29.453Z,16.22
2017-06-22T09:11:29.452Z,16.13
2017-06-22T09:12:29.444Z,16.22
2017-06-22T09:13:29.457Z,16.52
2017-06-22T09:14:29.133Z,16.4
2017-06-22T09:15:29.431Z,15.46
2017-06-22T09:16:29.127Z,15.28
2017-06-22T09:17:29.122Z,14.87
2017-06-22T09:18:29.421Z,14.91
2017-06-22T09:19:29.417Z,14.71
2017-06-22T09:20:29.412Z,14.9
2017-06-22T09:21:29.410Z,15.2
2017-06-22T09:22:29.401Z,15.09
2017-06-22T09:23:29.398Z,15.16
2017-06-22T09:24:29.394Z,15.11
2017-06-22T09:25:29.385Z,15.23
2017-06-22T09:26:29.378Z,15.23
2017-06-22T09:27:29.380Z,14.94
2017-06-22T09:28:29.373Z,15.48
2017-06-22T09:29:29.366Z,16.04
2017-06-22T09:30:29.366Z,16.3
2017-06-22T09:31:29.355Z,16.04
2017-06-22T09:32:29.354Z,15.46
2017-06-22T09:33:29.372Z,15.16
2017-06-22T09:34:29.336Z,15.18
2017-06-22T09:35:29.345Z,15.77
2017-06-22T09:36:29.330Z,16.01
2017-06-22T09:37:29.020Z,16.27
2017-06-22T09:38:29.017Z,16.32
2017-06-22T09:39:29.310Z,15.76
2017-06-22T09:40:29.012Z,15.89
2017-06-22T09:41:29.029Z,15.49
2017-06-22T09:42:29.305Z,15.73
2017-06-22T09:43:29.293Z,15.3
2017-06-22T09:44:28.993Z,14.79
2017-06-22T09:45:28.981Z,15.15
2017-06-22T09:46:28.978Z,15.62
2017-06-22T09:47:28.974Z,16.3
2017-06-22T09:48:28.967Z,16.22
2017-06-22T09:49:28.961Z,16.37
2017-06-22T09:50:29.263Z,16.57
2017-06-22T09:51:28.953Z,16.63
2017-06-22T09:52:29.252Z,17.07
2017-06-22T09:53:29.251Z,17.33
2017-06-22T09:54:29.242Z,17.39
2017-06-22T09:55:29.237Z,17.07
2017-06-22T09:56:29.232Z,16.48
2017-06-22T09:57:29.229Z,16.14
2017-06-22T09:58:28.922Z,16.16
2017-06-22T09:59:28.920Z,16.81
2017-06-22T10:00:28.915Z,17.49
2017-06-22T10:01:28.906Z,18.36
2017-06-22T10:02:28.904Z,17.62
2017-06-22T10:03:28.909Z,16.16
2017-06-22T10:04:29.204Z,15.89
2017-06-22T10:05:28.894Z,15.46
2017-06-22T10:06:29.193Z,15.2
2017-06-22T10:07:29.193Z,15.22
2017-06-22T10:08:29.187Z,15.46
2017-06-22T10:09:28.878Z,15.74
2017-06-22T10:10:29.176Z,16.63
2017-06-22T10:11:29.173Z,17.28
2017-06-22T10:12:29.164Z,17.87
2017-06-22T10:13:29.160Z,18.31
2017-06-22T10:14:29.156Z,18.71
2017-06-22T10:15:29.153Z,19.49
2017-06-22T10:16:28.850Z,19.64
2017-06-22T10:17:29.145Z,19.6
2017-06-22T10:18:28.842Z,18.76
2017-06-22T10:19:29.140Z,18.51
2017-06-22T10:20:29.139Z,17.94
2017-06-22T10:21:29.134Z,18.39
2017-06-22T10:22:29.131Z,18.72
2017-06-22T10:23:29.130Z,18.69
2017-06-22T10:24:29.123Z,18.6
2017-06-22T10:25:29.123Z,18.59
2017-06-22T10:26:28.816Z,18.6
2017-06-22T10:27:29.116Z,18.42
2017-06-22T10:28:29.111Z,17.76
2017-06-22T10:29:29.110Z,17.8
2017-06-22T10:30:28.809Z,17.36
2017-06-22T10:31:29.100Z,17.55
2017-06-22T10:32:29.101Z,17.57
2017-06-22T10:33:29.095Z,17.62
2017-06-22T10:34:29.091Z,17.89
2017-06-22T10:35:29.089Z,17.96
2017-06-22T10:36:29.087Z,17.74
2017-06-22T10:37:29.086Z,17.38
2017-06-22T10:38:29.083Z,17.45
2017-06-22T10:39:29.080Z,17.89
2017-06-22T10:40:29.079Z,18.04
2017-06-22T10:41:29.072Z,17.91
2017-06-22T10:42:28.766Z,17.94
2017-06-22T10:43:29.067Z,18.31
2017-06-22T10:44:29.063Z,18.19
2017-06-22T10:45:29.062Z,18.34
2017-06-22T10:46:28.757Z,18.34
2017-06-22T10:47:29.057Z,18.41
2017-06-22T10:48:29.059Z,18.39
2017-06-22T10:49:29.046Z,18.28
2017-06-22T10:50:29.051Z,17.96
2017-06-22T10:51:29.042Z,18.11
2017-06-22T10:52:29.041Z,18.01
2017-06-22T10:53:29.038Z,18.09
2017-06-22T10:54:29.034Z,18.13
2017-06-22T10:55:28.743Z,17.7
2017-06-22T10:56:29.027Z,17.47
2017-06-22T10:57:28.726Z,18.11
2017-06-22T10:58:28.724Z,18.97
2017-06-22T10:59:28.714Z,19.57
2017-06-22T11:00:29.017Z,19.39
2017-06-22T11:01:29.013Z,19.02
2017-06-22T11:02:29.015Z,18.11
2017-06-22T11:03:29.007Z,17.66
2017-06-22T11:04:28.710Z,17.3
2017-06-22T11:05:28.702Z,17.8
2017-06-22T11:06:29.001Z,17.45
2017-06-22T11:07:28.996Z,17.1
2017-06-22T11:08:28.993Z,17.47
2017-06-22T11:09:29.021Z,17.28
2017-06-22T11:10:28.683Z,18.14
2017-06-22T11:11:28.684Z,18.29
2017-06-22T11:12:28.979Z,18.99
2017-06-22T11:13:28.981Z,19.1
2017-06-22T11:14:28.974Z,19.23
2017-06-22T11:15:28.973Z,19.39
2017-06-22T11:16:28.975Z,19.21
2017-06-22T11:17:28.967Z,19.23
2017-06-22T11:18:28.361Z,19.38
2017-06-22T11:19:28.962Z,18.87
2017-06-22T11:20:28.968Z,18.71
2017-06-22T11:21:28.956Z,18.31
2017-06-22T11:22:28.963Z,18.6
2017-06-22T11:23:28.352Z,18.36
2017-06-22T11:24:28.649Z,18.25
2017-06-22T11:25:28.946Z,17.73
2017-06-22T11:26:28.340Z,17.81
2017-06-22T11:27:28.640Z,17.51
2017-06-22T11:28:28.937Z,17.84
2017-06-22T11:29:28.635Z,17.98
2017-06-22T11:30:28.936Z,18.16
2017-06-22T11:31:28.955Z,18.29
2017-06-22T11:32:28.626Z,17.87
2017-06-22T11:33:28.924Z,18.14
2017-06-22T11:34:28.627Z,18.04
2017-06-22T11:35:28.920Z,17.8
2017-06-22T11:36:28.617Z,17.99
2017-06-22T11:37:28.614Z,18.1
2017-06-22T11:38:28.910Z,18.28
2017-06-22T11:39:28.603Z,18.07
2017-06-22T11:40:28.902Z,17.91
2017-06-22T11:41:28.902Z,18.51
2017-06-22T11:42:28.894Z,18.71
2017-06-22T11:43:28.895Z,18.57
2017-06-22T11:44:28.889Z,18.11
2017-06-22T11:45:28.891Z,18.34
2017-06-22T11:46:28.885Z,18.13
2017-06-22T11:47:28.914Z,18.46
2017-06-22T11:48:28.882Z,18.49
2017-06-22T11:49:28.882Z,19.2
2017-06-22T11:50:28.573Z,19.25
2017-06-22T11:51:28.872Z,18.93
2017-06-22T11:52:28.869Z,19.07
2017-06-22T11:53:28.871Z,18.89
2017-06-22T11:54:28.864Z,18.79
2017-06-22T11:55:28.860Z,18.65
2017-06-22T11:56:28.861Z,18.89
2017-06-22T11:57:28.572Z,18.36
2017-06-22T11:58:28.855Z,17.98
2017-06-22T11:59:28.850Z,17.81
2017-06-22T12:00:28.851Z,17.66
2017-06-22T12:01:28.845Z,17.55
2017-06-22T12:02:28.840Z,17.68
2017-06-22T12:03:28.537Z,18.47
2017-06-22T12:04:28.533Z,19.13
2017-06-22T12:05:28.838Z,19.42
2017-06-22T12:06:28.831Z,20.3
2017-06-22T12:07:28.831Z,21.01
2017-06-22T12:08:28.843Z,21.68
2017-06-22T12:09:28.820Z,21.81
2017-06-22T12:10:28.821Z,21.56
2017-06-22T12:11:28.513Z,20.56
2017-06-22T12:12:28.818Z,19.7
2017-06-22T12:13:28.209Z,19.15
2017-06-22T12:14:28.512Z,18.76
2017-06-22T12:15:28.507Z,19.05
2017-06-22T12:16:28.805Z,19.94
2017-06-22T12:17:28.805Z,20.82
2017-06-22T12:18:28.507Z,21.31
2017-06-22T12:19:28.801Z,21.26
2017-06-22T12:20:28.797Z,21.18
2017-06-22T12:21:28.196Z,20.72
2017-06-22T12:22:28.495Z,20.13
2017-06-22T12:23:28.794Z,19.39
2017-06-22T12:24:28.491Z,18.94
2017-06-22T12:25:28.487Z,18.65
2017-06-22T12:26:28.486Z,18.44
2017-06-22T12:27:28.177Z,18.46
2017-06-22T12:28:28.176Z,18.25
2017-06-22T12:29:28.475Z,18.96
2017-06-22T12:30:28.477Z,19.64
2017-06-22T12:31:28.473Z,20.37
2017-06-22T12:32:28.469Z,20.4
2017-06-22T12:33:28.472Z,21.27
2017-06-22T12:34:28.464Z,20.88
2017-06-22T12:35:28.461Z,20.64
2017-06-22T12:36:28.765Z,20.07
2017-06-22T12:37:28.460Z,19.49
2017-06-22T12:38:28.756Z,19.24
2017-06-22T12:39:28.758Z,18.72
2017-06-22T12:40:28.456Z,18.86
2017-06-22T12:41:28.453Z,20.02
2017-06-22T12:42:28.753Z,21.09
2017-06-22T12:43:28.750Z,22.15
2017-06-22T12:44:28.747Z,22.08
2017-06-22T12:45:28.447Z,22.21
2017-06-22T12:46:28.450Z,21.86
2017-06-22T12:47:28.746Z,22.33
2017-06-22T12:48:28.744Z,23.06
2017-06-22T12:49:28.436Z,22.99
2017-06-22T12:50:28.737Z,22.75
2017-06-22T12:51:28.737Z,23.25
2017-06-22T12:52:28.438Z,22.88
2017-06-22T12:53:28.733Z,22.42
2017-06-22T12:54:28.738Z,21.45
2017-06-22T12:55:28.736Z,21.99
2017-06-22T12:56:28.734Z,21.22
2017-06-22T12:57:28.735Z,20.57
2017-06-22T12:58:28.730Z,19.45
2017-06-22T12:59:28.432Z,19.28